createdAt,value
2022-11-28T00:01:34.778Z,10.54
2022-11-28T00:04:01.903Z,10.55
2022-11-28T00:06:29.438Z,10.53
2022-11-28T00:08:59.866Z,10.42
2022-11-28T00:11:27.812Z,10.54
2022-11-28T00:13:55.660Z,10.50
2022-11-28T00:16:24.244Z,10.53
2022-11-28T00:18:53.183Z,10.49
2022-11-28T00:21:21.078Z,10.50
2022-11-28T00:23:50.408Z,10.47
2022-11-28T00:26:29.715Z,10.47
2022-11-28T00:28:58.332Z,10.40
2022-11-28T00:31:31.474Z,10.43
2022-11-28T00:33:59.886Z,10.42
2022-11-28T00:36:27.236Z,10.40
2022-11-28T00:38:54.514Z,10.36
2022-11-28T00:41:29.017Z,10.27
2022-11-28T00:43:57.626Z,10.38
2022-11-28T00:46:25.520Z,10.36
2022-11-28T00:48:53.415Z,10.39
2022-11-28T00:51:24.043Z,10.39
2022-11-28T00:53:55.173Z,10.34
2022-11-28T00:56:26.414Z,10.29
2022-11-28T00:59:00.556Z,10.17
2022-11-28T01:01:37.628Z,10.17
2022-11-28T01:04:09.165Z,10.17
2022-11-28T01:06:40.234Z,10.18
2022-11-28T01:09:11.658Z,10.08
2022-11-28T01:11:41.151Z,10.20
2022-11-28T01:14:09.554Z,10.27
2022-11-28T01:16:36.952Z,10.18
2022-11-28T01:19:05.288Z,10.47
2022-11-28T01:21:33.139Z,10.36
2022-11-28T01:24:00.760Z,10.36
2022-11-28T01:26:30.251Z,10.27
2022-11-28T01:28:59.342Z,10.15
2022-11-28T01:31:29.908Z,10.18
2022-11-28T01:33:58.099Z,10.11
2022-11-28T01:36:26.203Z,9.98
2022-11-28T01:38:55.220Z,10.09
2022-11-28T01:41:26.109Z,9.92
2022-11-28T01:44:07.324Z,9.85
2022-11-28T01:46:36.713Z,10.03
2022-11-28T01:49:14.769Z,10.00
2022-11-28T01:51:47.935Z,9.99
2022-11-28T01:54:18.109Z,9.92
2022-11-28T01:56:56.686Z,9.91
2022-11-28T01:59:27.881Z,9.86
2022-11-28T02:01:55.326Z,9.90
2022-11-28T02:04:26.291Z,9.84
2022-11-28T02:06:54.308Z,9.82
2022-11-28T02:09:21.760Z,9.84
2022-11-28T02:12:10.248Z,9.81
2022-11-28T02:14:50.465Z,9.76
2022-11-28T02:17:42.665Z,9.75
2022-11-28T02:20:25.302Z,9.71
2022-11-28T02:23:02.070Z,9.55
2022-11-28T02:26:03.483Z,9.73
2022-11-28T02:28:36.864Z,9.69
2022-11-28T02:31:18.236Z,9.66
2022-11-28T02:34:00.238Z,9.62
2022-11-28T02:36:39.763Z,9.61
2022-11-28T02:39:29.285Z,9.61
2022-11-28T02:42:23.475Z,9.50
2022-11-28T02:44:50.858Z,9.38
2022-11-28T02:47:28.096Z,9.52
2022-11-28T02:50:05.596Z,9.48
2022-11-28T02:52:50.224Z,9.42
2022-11-28T02:55:18.521Z,9.32
2022-11-28T02:57:51.974Z,9.34
2022-11-28T03:00:31.396Z,9.31
2022-11-28T03:03:24.786Z,9.24
2022-11-28T03:06:02.532Z,9.17
2022-11-28T03:08:45.184Z,9.09
2022-11-28T03:11:49.118Z,8.94
2022-11-28T03:14:25.167Z,8.95
2022-11-28T03:17:17.443Z,8.86
2022-11-28T03:20:08.907Z,8.90
2022-11-28T03:22:55.241Z,8.93
2022-11-28T03:25:44.235Z,8.87
2022-11-28T03:28:31.401Z,8.96
2022-11-28T03:31:10.782Z,9.05
2022-11-28T03:33:41.376Z,8.98
2022-11-28T03:36:22.294Z,9.01
2022-11-28T03:38:55.002Z,9.01
2022-11-28T03:41:30.175Z,9.07
2022-11-28T03:43:59.733Z,8.71
2022-11-28T03:46:34.545Z,8.95
2022-11-28T03:49:04.440Z,9.05
2022-11-28T03:51:33.955Z,9.02
2022-11-28T03:54:21.419Z,9.05
2022-11-28T03:57:13.426Z,9.06
2022-11-28T03:59:43.414Z,9.07
2022-11-28T04:02:25.767Z,9.10
2022-11-28T04:04:56.134Z,9.10
2022-11-28T04:07:29.356Z,8.99
2022-11-28T04:10:01.564Z,9.08
2022-11-28T04:12:51.369Z,9.09
2022-11-28T04:15:31.056Z,9.13
2022-11-28T04:18:17.983Z,9.07
2022-11-28T04:21:07.644Z,9.01
2022-11-28T04:23:38.218Z,9.09
2022-11-28T04:26:14.907Z,9.13
2022-11-28T04:28:43.367Z,9.17
2022-11-28T04:31:10.971Z,9.15
2022-11-28T04:33:44.473Z,9.23
2022-11-28T04:36:13.253Z,9.24
2022-11-28T04:38:42.912Z,9.18
2022-11-28T04:41:18.913Z,9.13
2022-11-28T04:43:53.039Z,9.12
2022-11-28T04:46:38.026Z,9.11
2022-11-28T04:49:05.546Z,9.09
2022-11-28T04:51:58.966Z,9.12
2022-11-28T04:54:49.243Z,9.10
2022-11-28T04:57:27.532Z,9.08
2022-11-28T04:59:57.982Z,9.14
2022-11-28T05:02:31.601Z,9.10
2022-11-28T05:05:02.159Z,9.17
2022-11-28T05:07:29.464Z,9.12
2022-11-28T05:09:58.701Z,9.17
2022-11-28T05:12:26.231Z,9.09
2022-11-28T05:14:53.639Z,9.08
2022-11-28T05:17:21.075Z,9.11
2022-11-28T05:19:48.111Z,9.10
2022-11-28T05:22:15.856Z,9.16
2022-11-28T05:24:43.454Z,9.10
2022-11-28T05:27:11.764Z,9.06
2022-11-28T05:29:46.887Z,9.11
2022-11-28T05:32:18.190Z,9.08
2022-11-28T05:34:47.766Z,9.11
2022-11-28T05:37:18.564Z,9.10
2022-11-28T05:39:50.256Z,9.08
2022-11-28T05:42:18.620Z,9.16
2022-11-28T05:44:46.124Z,9.07
2022-11-28T05:47:13.344Z,9.09
2022-11-28T05:49:40.739Z,9.02
2022-11-28T05:52:09.049Z,8.87
2022-11-28T05:54:36.170Z,9.15
2022-11-28T05:57:03.534Z,9.11
2022-11-28T05:59:30.901Z,9.06
2022-11-28T06:01:58.352Z,8.99
2022-11-28T06:04:25.794Z,8.94
2022-11-28T06:06:53.475Z,8.92
2022-11-28T06:09:24.610Z,8.92
2022-11-28T06:11:53.748Z,8.81
2022-11-28T06:14:20.995Z,8.91
2022-11-28T06:16:48.736Z,8.84
2022-11-28T06:19:16.429Z,8.76
2022-11-28T06:21:43.880Z,8.76
2022-11-28T06:24:11.902Z,8.67
2022-11-28T06:26:39.186Z,8.59
2022-11-28T06:29:06.673Z,8.65
2022-11-28T06:31:34.475Z,8.75
2022-11-28T06:34:01.868Z,8.67
2022-11-28T06:36:31.459Z,8.61
2022-11-28T06:38:58.723Z,8.65
2022-11-28T06:41:25.922Z,8.62
2022-11-28T06:43:53.446Z,8.56
2022-11-28T06:46:22.345Z,8.62
2022-11-28T06:48:51.202Z,8.60
2022-11-28T06:51:19.233Z,8.55
2022-11-28T06:53:46.907Z,8.52
2022-11-28T06:56:17.661Z,8.54
2022-11-28T06:58:46.467Z,8.56
2022-11-28T07:01:20.089Z,8.54
2022-11-28T07:03:49.108Z,8.48
2022-11-28T07:06:18.819Z,8.42
2022-11-28T07:08:46.888Z,8.44
2022-11-28T07:11:17.354Z,8.40
2022-11-28T07:13:48.371Z,8.29
2022-11-28T07:16:30.241Z,8.16
2022-11-28T07:18:59.580Z,8.22
2022-11-28T07:21:28.157Z,8.25
2022-11-28T07:23:55.482Z,8.22
2022-11-28T07:26:23.153Z,8.20
2022-11-28T07:28:51.930Z,8.17
2022-11-28T07:31:22.124Z,8.16
2022-11-28T07:33:50.897Z,8.04
2022-11-28T07:36:21.267Z,8.11
2022-11-28T07:38:54.723Z,7.91
2022-11-28T07:41:26.459Z,8.01
2022-11-28T07:43:57.226Z,7.93
2022-11-28T07:46:26.228Z,7.93
2022-11-28T07:48:53.733Z,7.83
2022-11-28T07:51:24.305Z,7.84
2022-11-28T07:53:53.466Z,7.79
2022-11-28T07:56:25.265Z,7.95
2022-11-28T07:58:53.482Z,7.96
2022-11-28T08:01:24.682Z,7.89
2022-11-28T08:03:53.364Z,7.92
2022-11-28T08:06:22.638Z,8.00
2022-11-28T08:08:50.684Z,7.98
2022-11-28T08:11:20.947Z,7.90
2022-11-28T08:13:49.427Z,7.92
2022-11-28T08:16:20.256Z,7.94
2022-11-28T08:18:49.487Z,7.94
2022-11-28T08:21:20.285Z,7.85
2022-11-28T08:23:47.759Z,7.98
2022-11-28T08:26:17.505Z,8.03
2022-11-28T08:28:45.388Z,7.97
2022-11-28T08:31:24.492Z,7.94
2022-11-28T08:33:52.955Z,7.89
2022-11-28T08:36:21.050Z,7.88
2022-11-28T08:39:03.532Z,7.97
2022-11-28T08:41:37.247Z,8.01
2022-11-28T08:44:04.614Z,8.11
2022-11-28T08:46:31.922Z,8.15
2022-11-28T08:49:04.214Z,8.33
2022-11-28T08:51:32.249Z,8.50
2022-11-28T08:54:00.364Z,8.54
2022-11-28T08:56:28.665Z,8.50
2022-11-28T08:58:56.778Z,8.50
2022-11-28T09:01:26.425Z,8.52
2022-11-28T09:03:55.289Z,8.56
2022-11-28T09:06:24.503Z,8.46
2022-11-28T09:08:52.882Z,8.50
2022-11-28T09:11:22.680Z,8.48
2022-11-28T09:13:50.969Z,8.43
2022-11-28T09:16:18.398Z,8.49
2022-11-28T09:18:45.649Z,8.43
2022-11-28T09:21:15.250Z,8.58
2022-11-28T09:23:44.730Z,8.58
2022-11-28T09:26:14.646Z,8.61
2022-11-28T09:28:42.561Z,8.65
2022-11-28T09:31:11.035Z,8.66
2022-11-28T09:33:39.015Z,8.69
2022-11-28T09:36:11.679Z,8.75
2022-11-28T09:38:40.113Z,8.79
2022-11-28T09:41:28.921Z,8.94
2022-11-28T09:44:18.531Z,9.19
2022-11-28T09:46:48.674Z,9.27
2022-11-28T09:49:27.317Z,9.45
2022-11-28T09:52:05.293Z,9.48
2022-11-28T09:54:51.346Z,9.45
2022-11-28T09:57:39.479Z,9.34
2022-11-28T10:00:17.182Z,9.45
2022-11-28T10:02:51.598Z,9.39
2022-11-28T10:05:43.415Z,9.47
2022-11-28T10:08:37.296Z,9.40
2022-11-28T10:11:07.183Z,9.19
2022-11-28T10:14:10.466Z,9.32
2022-11-28T10:16:55.816Z,9.34
2022-11-28T10:22:29.685Z,9.44
2022-11-28T10:25:01.124Z,9.28
2022-11-28T10:27:35.914Z,9.51
2022-11-28T10:30:11.713Z,9.51
2022-11-28T10:32:42.946Z,9.54
2022-11-28T10:35:28.969Z,9.70
2022-11-28T10:37:57.494Z,9.82
2022-11-28T10:40:42.271Z,9.83
2022-11-28T10:43:32.685Z,9.88
2022-11-28T10:46:24.557Z,9.77
2022-11-28T10:49:07.958Z,9.86
2022-11-28T10:51:44.466Z,9.92
2022-11-28T10:54:36.856Z,9.89
2022-11-28T10:57:17.853Z,9.94
2022-11-28T11:00:01.662Z,10.16
2022-11-28T11:02:52.699Z,10.24
2022-11-28T11:05:24.675Z,10.37
2022-11-28T11:08:02.787Z,10.41
2022-11-28T11:10:49.588Z,10.36
2022-11-28T11:13:21.683Z,10.36
2022-11-28T11:16:03.351Z,10.35
2022-11-28T11:18:35.391Z,10.30
2022-11-28T11:21:09.108Z,10.47
2022-11-28T11:23:38.431Z,10.52
2022-11-28T11:26:10.606Z,10.55
2022-11-28T11:28:47.549Z,10.55
2022-11-28T11:31:44.915Z,10.55
2022-11-28T11:34:18.869Z,10.60
2022-11-28T11:36:46.891Z,10.62
2022-11-28T11:39:13.984Z,10.68
2022-11-28T11:41:42.339Z,10.68
2022-11-28T11:44:15.969Z,10.77
2022-11-28T11:47:02.088Z,10.71
2022-11-28T11:49:38.484Z,11.01
2022-11-28T11:52:26.300Z,11.12
2022-11-28T11:54:58.552Z,11.21
2022-11-28T11:57:38.444Z,11.26
2022-11-28T12:00:19.418Z,11.24
2022-11-28T12:02:56.702Z,11.18
2022-11-28T12:05:46.632Z,11.33
2022-11-28T12:08:55.910Z,11.42
2022-11-28T12:11:34.453Z,11.50
2022-11-28T12:14:39.016Z,11.68
2022-11-28T12:17:46.862Z,11.63
2022-11-28T12:20:20.976Z,11.50
2022-11-28T12:23:17.025Z,11.62
2022-11-28T12:26:03.566Z,11.64
2022-11-28T12:28:47.687Z,11.59
2022-11-28T12:31:37.035Z,11.45
2022-11-28T12:34:30.677Z,11.43
2022-11-28T12:37:14.185Z,11.48
2022-11-28T12:39:51.761Z,11.56
2022-11-28T12:42:44.724Z,11.56
2022-11-28T12:45:47.908Z,11.65
2022-11-28T12:48:51.660Z,11.77
2022-11-28T12:51:33.463Z,11.95
2022-11-28T12:54:37.623Z,12.08
2022-11-28T12:57:23.591Z,12.22
2022-11-28T13:00:06.694Z,12.13
2022-11-28T13:02:50.911Z,12.14
2022-11-28T13:05:42.893Z,12.35
2022-11-28T13:08:46.510Z,12.43
2022-11-28T13:11:27.169Z,11.86
2022-11-28T13:14:10.112Z,11.69
2022-11-28T13:16:50.360Z,11.55
2022-11-28T13:19:20.607Z,11.41
2022-11-28T13:22:00.226Z,11.23
2022-11-28T13:25:09.231Z,11.09
2022-11-28T13:28:02.942Z,11.00
2022-11-28T13:30:41.127Z,10.98
2022-11-28T13:33:19.436Z,11.10
2022-11-28T13:35:48.122Z,11.05
2022-11-28T13:38:36.293Z,11.11
2022-11-28T13:41:43.083Z,11.08
2022-11-28T13:44:23.063Z,11.16
2022-11-28T13:46:51.511Z,11.14
2022-11-28T13:49:29.956Z,11.02
2022-11-28T13:52:19.162Z,11.00
2022-11-28T13:54:53.247Z,11.00
2022-11-28T13:57:38.976Z,11.01
2022-11-28T14:00:24.139Z,10.79
2022-11-28T14:03:00.427Z,10.76
2022-11-28T14:05:35.180Z,10.76
2022-11-28T14:08:05.123Z,10.72
2022-11-28T14:10:58.916Z,10.63
2022-11-28T14:13:32.730Z,10.60
2022-11-28T14:16:25.339Z,10.54
2022-11-28T14:19:13.119Z,10.60
2022-11-28T14:21:49.635Z,10.53
2022-11-28T14:24:32.607Z,10.52
2022-11-28T14:27:03.144Z,10.45
2022-11-28T14:29:40.246Z,10.34
2022-11-28T14:32:30.228Z,10.53
2022-11-28T14:35:00.616Z,10.52
2022-11-28T14:37:29.048Z,10.41
2022-11-28T14:39:58.655Z,10.56
2022-11-28T14:42:59.052Z,10.44
2022-11-28T14:45:41.594Z,10.62
2022-11-28T14:48:24.572Z,10.53
2022-11-28T14:50:59.312Z,10.57
2022-11-28T14:53:38.340Z,10.56
2022-11-28T14:56:29.341Z,10.51
2022-11-28T14:59:01.458Z,10.49
2022-11-28T15:01:43.965Z,10.48
2022-11-28T15:04:39.503Z,10.53
2022-11-28T15:07:37.136Z,10.53
2022-11-28T15:10:23.132Z,10.31
2022-11-28T15:13:28.725Z,10.44
2022-11-28T15:15:56.231Z,10.29
2022-11-28T15:18:26.097Z,10.30
2022-11-28T15:21:01.560Z,10.31
2022-11-28T15:23:35.887Z,10.13
2022-11-28T15:26:03.841Z,10.25
2022-11-28T15:28:34.319Z,10.33
2022-11-28T15:31:06.920Z,10.20
2022-11-28T15:33:34.516Z,10.25
2022-11-28T15:36:12.506Z,10.21
2022-11-28T15:38:43.339Z,10.07
2022-11-28T15:41:11.388Z,10.21
2022-11-28T15:43:42.733Z,10.22
2022-11-28T15:46:34.689Z,10.25
2022-11-28T15:49:02.860Z,10.10
2022-11-28T15:51:36.599Z,10.15
2022-11-28T15:54:27.774Z,10.01
2022-11-28T15:56:58.960Z,9.92
2022-11-28T15:59:28.253Z,10.01
2022-11-28T16:02:00.311Z,9.99
2022-11-28T16:04:29.126Z,10.02
2022-11-28T16:06:59.391Z,9.93
2022-11-28T16:09:35.908Z,9.85
2022-11-28T16:12:05.705Z,9.80
2022-11-28T16:14:36.586Z,9.66
2022-11-28T16:17:10.698Z,9.77
2022-11-28T16:19:38.926Z,9.76
2022-11-28T16:22:15.552Z,9.55
2022-11-28T16:24:52.603Z,9.52
2022-11-28T16:27:29.425Z,9.63
2022-11-28T16:29:57.002Z,9.63
2022-11-28T16:32:39.837Z,9.57
2022-11-28T16:35:12.715Z,9.55
2022-11-28T16:37:40.911Z,9.49
2022-11-28T16:40:17.362Z,9.42
2022-11-28T16:42:53.683Z,9.29
2022-11-28T16:45:30.930Z,9.24
2022-11-28T16:48:08.940Z,9.33
2022-11-28T16:50:37.655Z,9.22
2022-11-28T16:53:05.906Z,9.21
2022-11-28T16:55:34.098Z,9.30
2022-11-28T16:58:16.604Z,9.17
2022-11-28T17:00:48.586Z,9.22
2022-11-28T17:03:46.725Z,9.09
2022-11-28T17:06:24.244Z,9.13
2022-11-28T17:08:52.073Z,9.09
2022-11-28T17:11:23.610Z,9.10
2022-11-28T17:13:51.826Z,9.02
2022-11-28T17:16:25.069Z,8.94
2022-11-28T17:18:52.734Z,8.83
2022-11-28T17:21:35.135Z,8.77
2022-11-28T17:24:02.771Z,8.77
2022-11-28T17:26:30.207Z,8.85
2022-11-28T17:28:59.261Z,8.78
2022-11-28T17:31:26.536Z,8.62
2022-11-28T17:33:53.916Z,8.64
2022-11-28T17:36:22.732Z,8.57
2022-11-28T17:38:50.095Z,8.65
2022-11-28T17:41:17.572Z,8.65
2022-11-28T17:43:45.443Z,8.68
2022-11-28T17:46:12.908Z,8.64
2022-11-28T17:48:40.885Z,8.61
2022-11-28T17:51:11.174Z,8.50
2022-11-28T17:53:38.808Z,8.32
2022-11-28T17:56:06.756Z,8.12
2022-11-28T17:58:37.758Z,8.04
2022-11-28T18:01:11.735Z,7.91
2022-11-28T18:03:40.604Z,7.69
2022-11-28T18:06:15.706Z,7.62
2022-11-28T18:08:44.887Z,7.63
2022-11-28T18:11:13.994Z,7.50
2022-11-28T18:13:43.805Z,7.47
2022-11-28T18:16:14.355Z,7.39
2022-11-28T18:18:41.788Z,7.37
2022-11-28T18:21:11.099Z,7.33
2022-11-28T18:23:42.666Z,7.23
2022-11-28T18:26:14.359Z,7.08
2022-11-28T18:28:42.039Z,6.97
2022-11-28T18:31:16.598Z,6.99
2022-11-28T18:33:44.013Z,6.97
2022-11-28T18:36:13.657Z,6.80
2022-11-28T18:38:42.037Z,6.90
2022-11-28T18:41:09.796Z,6.92
2022-11-28T18:43:37.650Z,6.87
2022-11-28T18:46:11.434Z,6.83
2022-11-28T18:48:40.942Z,6.83
2022-11-28T18:51:12.041Z,6.63
2022-11-28T18:53:40.221Z,6.76
2022-11-28T18:56:08.287Z,6.64
2022-11-28T18:58:42.213Z,6.62
2022-11-28T19:01:25.281Z,6.58
2022-11-28T19:03:56.687Z,6.51
2022-11-28T19:06:24.770Z,6.52
2022-11-28T19:08:57.979Z,6.47
2022-11-28T19:11:26.470Z,6.44
2022-11-28T19:13:53.921Z,6.35
2022-11-28T19:16:25.201Z,6.19
2022-11-28T19:19:00.839Z,6.11
2022-11-28T19:21:33.113Z,6.22
2022-11-28T19:24:02.615Z,6.25
2022-11-28T19:26:34.155Z,6.21
2022-11-28T19:29:03.941Z,6.03
2022-11-28T19:31:33.886Z,6.11
2022-11-28T19:34:04.548Z,6.08
2022-11-28T19:36:35.447Z,6.02
2022-11-28T19:39:04.160Z,5.97
2022-11-28T19:41:32.625Z,5.97
2022-11-28T19:44:00.369Z,5.87
2022-11-28T19:46:35.069Z,5.83
2022-11-28T19:49:14.571Z,5.97
2022-11-28T19:51:41.839Z,6.00
2022-11-28T19:54:09.553Z,5.98
2022-11-28T19:56:37.307Z,6.03
2022-11-28T19:59:04.631Z,6.04
2022-11-28T20:01:31.938Z,6.04
2022-11-28T20:03:59.904Z,6.01
2022-11-28T20:06:30.318Z,6.09
2022-11-28T20:09:05.364Z,6.11
2022-11-28T20:11:37.769Z,6.07
2022-11-28T20:14:08.970Z,6.09
2022-11-28T20:16:37.566Z,6.07
2022-11-28T20:19:06.628Z,6.02
2022-11-28T20:21:34.871Z,6.03
2022-11-28T20:24:05.996Z,6.04
2022-11-28T20:26:38.616Z,5.99
2022-11-28T20:29:07.047Z,5.92
2022-11-28T20:31:42.500Z,5.92
2022-11-28T20:34:10.305Z,5.87
2022-11-28T20:36:43.835Z,5.84
2022-11-28T20:39:12.818Z,5.89
2022-11-28T20:41:40.787Z,5.83
2022-11-28T20:44:08.653Z,5.89
2022-11-28T20:46:36.179Z,5.84
2022-11-28T20:49:06.836Z,5.81
2022-11-28T20:51:36.492Z,5.75
2022-11-28T20:54:05.617Z,5.73
2022-11-28T20:56:57.956Z,5.78
2022-11-28T20:59:24.492Z,5.70
2022-11-28T21:01:54.074Z,5.67
2022-11-28T21:04:21.571Z,5.66
2022-11-28T21:06:49.727Z,5.66
2022-11-28T21:09:20.573Z,5.54
2022-11-28T21:11:58.498Z,5.60
2022-11-28T21:14:27.342Z,5.63
2022-11-28T21:16:55.858Z,5.62
2022-11-28T21:19:26.223Z,5.61
2022-11-28T21:21:54.999Z,5.60
2022-11-28T21:24:29.319Z,5.64
2022-11-28T21:26:57.055Z,5.47
2022-11-28T21:29:25.204Z,5.48
2022-11-28T21:31:55.913Z,5.42
2022-11-28T21:34:24.581Z,5.37
2022-11-28T21:36:52.243Z,5.32
2022-11-28T21:39:20.802Z,5.22
2022-11-28T21:41:53.478Z,5.26
2022-11-28T21:44:22.435Z,5.24
2022-11-28T21:46:49.936Z,5.20
2022-11-28T21:49:17.948Z,5.21
2022-11-28T21:51:47.372Z,5.13
2022-11-28T21:54:15.375Z,5.12
2022-11-28T21:56:45.122Z,5.07
2022-11-28T21:59:12.836Z,5.07
2022-11-28T22:01:41.914Z,5.03
2022-11-28T22:04:11.103Z,5.03
2022-11-28T22:06:39.409Z,4.97
2022-11-28T22:09:09.435Z,4.87
2022-11-28T22:11:38.533Z,4.89
2022-11-28T22:14:06.370Z,4.92
2022-11-28T22:16:37.588Z,4.86
2022-11-28T22:19:06.384Z,4.96
2022-11-28T22:21:53.415Z,4.91
2022-11-28T22:24:22.256Z,4.87
2022-11-28T22:26:49.865Z,4.87
2022-11-28T22:29:18.516Z,4.79
2022-11-28T22:31:46.076Z,4.82
2022-11-28T22:34:13.706Z,4.79
2022-11-28T22:36:41.157Z,4.75
2022-11-28T22:39:11.594Z,4.75
2022-11-28T22:41:39.185Z,4.78
2022-11-28T22:44:06.523Z,4.71
2022-11-28T22:46:34.045Z,4.70
2022-11-28T22:49:02.299Z,4.66
2022-11-28T22:51:30.974Z,4.66
2022-11-28T22:54:01.013Z,4.67
2022-11-28T22:56:31.147Z,4.67
2022-11-28T22:59:00.061Z,4.69
2022-11-28T23:01:31.068Z,4.67
2022-11-28T23:04:03.786Z,4.68
2022-11-28T23:06:34.876Z,4.72
2022-11-28T23:09:06.632Z,4.73
2022-11-28T23:11:37.540Z,4.60
2022-11-28T23:14:05.424Z,4.75
2022-11-28T23:16:36.116Z,4.79
2022-11-28T23:19:10.375Z,4.86
2022-11-28T23:21:40.334Z,4.89
2022-11-28T23:24:12.679Z,4.96
2022-11-28T23:26:40.176Z,4.98
2022-11-28T23:29:07.878Z,5.06
2022-11-28T23:31:38.236Z,5.07
2022-11-28T23:34:05.584Z,4.85
2022-11-28T23:36:41.878Z,4.99
2022-11-28T23:39:18.711Z,5.01
2022-11-28T23:41:46.835Z,5.00
2022-11-28T23:44:15.409Z,4.93
2022-11-28T23:46:43.436Z,4.91
2022-11-28T23:49:11.662Z,4.85
2022-11-28T23:51:40.854Z,4.78
2022-11-28T23:54:09.849Z,4.83
2022-11-28T23:56:39.783Z,4.82
2022-11-28T23:59:09.033Z,4.73
